createdAt,value
2018-11-14T00:00:12.195Z,3.93
2018-11-14T00:02:40.830Z,4.63
2018-11-14T00:05:09.352Z,4.40
2018-11-14T00:07:37.974Z,4.50
2018-11-14T00:10:08.172Z,3.63
2018-11-14T00:12:36.720Z,4.77
2018-11-14T00:15:06.190Z,4.30
2018-11-14T00:17:34.728Z,4.30
2018-11-14T00:20:03.392Z,4.20
2018-11-14T00:22:32.033Z,3.90
2018-11-14T00:25:00.574Z,4.60
2018-11-14T00:27:29.110Z,4.40
2018-11-14T00:29:57.693Z,3.90
2018-11-14T00:32:26.237Z,4.40
2018-11-14T00:34:54.855Z,4.30
2018-11-14T00:37:23.378Z,3.90
2018-11-14T00:39:51.998Z,3.60
2018-11-14T00:42:20.542Z,4.57
2018-11-14T00:44:49.085Z,3.50
2018-11-14T00:47:17.627Z,4.40
2018-11-14T00:49:46.170Z,3.50
2018-11-14T00:52:14.721Z,3.80
2018-11-14T00:54:43.295Z,4.10
2018-11-14T00:57:11.902Z,3.73
2018-11-14T00:59:40.462Z,4.10
2018-11-14T01:02:09.006Z,4.03
2018-11-14T01:04:37.561Z,3.70
2018-11-14T01:07:06.327Z,3.67
2018-11-14T01:09:34.937Z,3.57
2018-11-14T01:12:03.477Z,3.47
2018-11-14T01:14:32.025Z,3.43
2018-11-14T01:17:00.515Z,3.53
2018-11-14T01:19:29.050Z,3.70
2018-11-14T01:21:57.614Z,4.20
2018-11-14T01:24:26.470Z,4.30
2018-11-14T01:26:55.033Z,4.07
2018-11-14T01:29:23.711Z,3.30
2018-11-14T01:31:52.276Z,3.80
2018-11-14T01:34:20.815Z,3.80
2018-11-14T01:36:50.043Z,3.30
2018-11-14T01:39:18.570Z,3.90
2018-11-14T01:41:47.097Z,3.03
2018-11-14T01:44:15.577Z,3.03
2018-11-14T01:46:44.087Z,3.80
2018-11-14T01:49:12.606Z,3.63
2018-11-14T01:51:41.127Z,3.10
2018-11-14T01:54:09.612Z,3.33
2018-11-14T01:56:38.143Z,3.97
2018-11-14T01:59:06.638Z,3.90
2018-11-14T02:01:35.290Z,4.27
2018-11-14T02:04:03.815Z,3.40
2018-11-14T02:06:32.341Z,5.23
2018-11-14T02:09:00.959Z,4.47
2018-11-14T02:11:29.474Z,3.67
2018-11-14T02:13:57.986Z,3.70
2018-11-14T02:16:26.534Z,3.10
2018-11-14T02:18:55.021Z,4.00
2018-11-14T02:21:23.536Z,3.50
2018-11-14T02:23:52.023Z,3.93
2018-11-14T02:26:20.542Z,3.40
2018-11-14T02:28:51.117Z,3.50
2018-11-14T02:31:20.051Z,3.80
2018-11-14T02:33:48.804Z,3.67
2018-11-14T02:36:17.392Z,3.47
2018-11-14T02:38:46.172Z,3.70
2018-11-14T02:41:14.715Z,3.37
2018-11-14T02:43:43.228Z,3.50
2018-11-14T02:46:11.765Z,3.10
2018-11-14T02:48:40.302Z,3.80
2018-11-14T02:51:22.934Z,3.40
2018-11-14T02:53:51.436Z,3.10
2018-11-14T02:56:19.955Z,3.60
2018-11-14T02:58:48.440Z,4.00
2018-11-14T03:01:16.963Z,3.60
2018-11-14T03:03:45.471Z,3.20
2018-11-14T03:06:14.230Z,3.60
2018-11-14T03:08:42.754Z,3.20
2018-11-14T03:11:11.606Z,3.60
2018-11-14T03:13:40.121Z,2.87
2018-11-14T03:16:08.790Z,3.50
2018-11-14T03:18:37.290Z,3.80
2018-11-14T03:21:05.835Z,2.97
2018-11-14T03:23:34.343Z,3.40
2018-11-14T03:26:02.872Z,2.87
2018-11-14T03:28:31.376Z,3.10
2018-11-14T03:30:59.986Z,2.93
2018-11-14T03:33:29.126Z,3.03
2018-11-14T03:36:03.072Z,3.33
2018-11-14T03:38:31.607Z,3.00
2018-11-14T03:41:00.150Z,2.50
2018-11-14T03:43:28.665Z,3.60
2018-11-14T03:45:57.755Z,3.87
2018-11-14T03:48:26.290Z,3.60
2018-11-14T03:50:54.795Z,4.33
2018-11-14T03:53:23.338Z,4.80
2018-11-14T03:55:51.858Z,6.03
2018-11-14T03:58:20.491Z,7.83
2018-11-14T04:00:48.930Z,8.80
2018-11-14T04:03:17.485Z,7.30
2018-11-14T04:05:46.065Z,4.43
2018-11-14T04:08:14.573Z,4.73
2018-11-14T04:10:43.073Z,4.00
2018-11-14T04:13:11.612Z,5.27
2018-11-14T04:15:40.105Z,6.00
2018-11-14T04:18:08.708Z,6.80
2018-11-14T04:20:37.225Z,7.00
2018-11-14T04:23:06.261Z,6.83
2018-11-14T04:25:34.754Z,6.90
2018-11-14T04:28:03.346Z,7.60
2018-11-14T04:30:31.849Z,6.70
2018-11-14T04:33:00.399Z,6.50
2018-11-14T04:35:28.942Z,7.60
2018-11-14T04:37:57.461Z,6.50
2018-11-14T04:40:26.047Z,6.53
2018-11-14T04:42:54.573Z,7.03
2018-11-14T04:45:25.447Z,6.90
2018-11-14T04:47:54.203Z,6.53
2018-11-14T04:50:24.683Z,6.97
2018-11-14T04:52:53.682Z,6.33
2018-11-14T04:55:23.267Z,7.83
2018-11-14T04:57:51.987Z,5.43
2018-11-14T05:00:21.761Z,5.47
2018-11-14T05:02:50.891Z,5.67
2018-11-14T05:05:21.395Z,5.93
2018-11-14T05:07:49.927Z,5.70
2018-11-14T05:10:20.718Z,5.90
2018-11-14T05:12:49.974Z,5.70
2018-11-14T05:15:20.542Z,5.77
2018-11-14T05:17:49.762Z,5.40
2018-11-14T05:20:19.341Z,5.23
2018-11-14T05:22:48.403Z,6.40
2018-11-14T05:25:17.266Z,5.23
2018-11-14T05:27:46.039Z,4.30
2018-11-14T05:30:15.789Z,4.57
2018-11-14T05:32:45.463Z,4.50
2018-11-14T05:35:14.538Z,4.20
2018-11-14T05:37:43.137Z,4.17
2018-11-14T05:40:14.025Z,3.70
2018-11-14T05:42:43.186Z,3.80
2018-11-14T05:45:17.180Z,3.93
2018-11-14T05:47:45.974Z,4.37
2018-11-14T05:50:16.106Z,4.23
2018-11-14T05:52:44.716Z,3.93
2018-11-14T05:55:13.979Z,5.63
2018-11-14T05:57:42.485Z,4.50
2018-11-14T06:00:17.842Z,5.07
2018-11-14T06:02:46.886Z,5.03
2018-11-14T06:05:15.509Z,6.07
2018-11-14T06:07:44.003Z,7.03
2018-11-14T06:10:13.381Z,5.13
2018-11-14T06:12:42.659Z,6.90
2018-11-14T06:15:14.194Z,5.70
2018-11-14T06:17:43.852Z,8.33
2018-11-14T06:20:17.085Z,7.67
2018-11-14T06:22:46.542Z,5.30
2018-11-14T06:25:32.098Z,8.00
2018-11-14T06:28:01.804Z,6.93
2018-11-14T06:30:31.731Z,5.57
2018-11-14T06:33:01.283Z,6.47
2018-11-14T06:35:31.166Z,4.33
2018-11-14T06:37:59.821Z,4.80
2018-11-14T06:40:28.407Z,4.23
2018-11-14T06:42:56.921Z,4.33
2018-11-14T06:45:26.837Z,4.40
2018-11-14T06:47:56.729Z,4.20
2018-11-14T06:50:25.283Z,5.37
2018-11-14T06:52:55.316Z,5.00
2018-11-14T06:55:23.836Z,4.20
2018-11-14T06:57:52.388Z,4.40
2018-11-14T07:00:25.817Z,4.20
2018-11-14T07:02:55.225Z,4.20
2018-11-14T07:05:23.828Z,4.50
2018-11-14T07:07:52.358Z,4.80
2018-11-14T07:10:22.518Z,5.10
2018-11-14T07:12:51.053Z,5.10
2018-11-14T07:15:20.892Z,4.50
2018-11-14T07:17:50.288Z,5.30
2018-11-14T07:20:21.983Z,4.77
2018-11-14T07:22:50.608Z,5.60
2018-11-14T07:25:19.172Z,5.10
2018-11-14T07:27:47.762Z,5.60
2018-11-14T07:30:19.065Z,5.20
2018-11-14T07:32:48.932Z,4.87
2018-11-14T07:35:18.107Z,5.70
2018-11-14T07:38:53.092Z,5.27
2018-11-14T07:41:25.085Z,4.90
2018-11-14T07:43:53.858Z,5.30
2018-11-14T07:46:23.158Z,4.90
2018-11-14T07:48:52.084Z,5.77
2018-11-14T07:51:20.892Z,4.87
2018-11-14T07:53:49.769Z,5.40
2018-11-14T07:56:18.327Z,4.70
2018-11-14T07:58:46.865Z,5.87
2018-11-14T08:01:15.589Z,6.37
2018-11-14T08:03:44.470Z,5.57
2018-11-14T08:06:13.046Z,5.73
2018-11-14T08:08:41.840Z,4.80
2018-11-14T08:11:10.638Z,4.60
2018-11-14T08:13:40.933Z,4.90
2018-11-14T08:16:09.478Z,5.87
2018-11-14T08:18:38.040Z,5.17
2018-11-14T08:21:07.147Z,5.23
2018-11-14T08:23:35.647Z,4.50
2018-11-14T08:26:04.219Z,5.63
2018-11-14T08:28:32.725Z,5.00
2018-11-14T08:31:01.257Z,5.00
2018-11-14T08:33:29.780Z,4.83
2018-11-14T08:35:58.342Z,5.47
2018-11-14T08:38:27.186Z,5.97
2018-11-14T08:40:55.941Z,5.80
2018-11-14T08:43:24.558Z,5.20
2018-11-14T08:45:53.082Z,4.80
2018-11-14T08:48:21.588Z,5.23
2018-11-14T08:50:50.148Z,5.87
2018-11-14T08:53:18.706Z,6.80
2018-11-14T08:55:47.233Z,6.23
2018-11-14T08:58:15.819Z,5.83
2018-11-14T09:00:44.472Z,6.77
2018-11-14T09:03:14.075Z,6.10
2018-11-14T09:05:42.595Z,6.37
2018-11-14T09:08:11.246Z,8.13
2018-11-14T09:10:39.745Z,7.87
2018-11-14T09:13:13.317Z,10.10
2018-11-14T09:15:41.996Z,9.10
2018-11-14T09:18:10.841Z,10.43
2018-11-14T09:20:39.389Z,9.63
2018-11-14T09:23:08.274Z,8.37
2018-11-14T09:25:37.050Z,9.53
2018-11-14T09:28:05.950Z,8.47
2018-11-14T09:30:34.628Z,8.60
2018-11-14T09:33:03.184Z,8.27
2018-11-14T09:35:31.778Z,9.10
2018-11-14T09:38:01.008Z,8.80
2018-11-14T09:40:30.181Z,8.93
2018-11-14T09:42:59.392Z,9.00
2018-11-14T09:45:31.151Z,10.50
2018-11-14T09:48:01.974Z,11.00
2018-11-14T09:50:31.525Z,10.53
2018-11-14T09:53:01.540Z,9.37
2018-11-14T09:55:30.180Z,10.60
2018-11-14T09:57:58.886Z,9.10
2018-11-14T10:00:29.633Z,10.57
2018-11-14T10:03:17.359Z,9.60
2018-11-14T10:05:46.048Z,9.77
2018-11-14T10:08:14.638Z,10.10
2018-11-14T10:10:43.158Z,11.70
2018-11-14T10:13:11.730Z,12.13
2018-11-14T10:15:40.261Z,15.60
2018-11-14T10:18:08.801Z,13.93
2018-11-14T10:20:37.294Z,12.20
2018-11-14T10:23:06.049Z,11.20
2018-11-14T10:25:34.570Z,11.50
2018-11-14T10:28:03.113Z,12.40
2018-11-14T10:30:31.652Z,13.77
2018-11-14T10:33:00.176Z,15.30
2018-11-14T10:35:28.686Z,14.17
2018-11-14T10:37:57.317Z,12.80
2018-11-14T10:40:27.926Z,11.23
2018-11-14T10:42:56.894Z,16.60
2018-11-14T10:45:26.353Z,22.30
2018-11-14T10:47:54.885Z,19.40
2018-11-14T10:50:24.747Z,14.03
2018-11-14T10:52:53.372Z,13.40
2018-11-14T10:55:22.304Z,15.07
2018-11-14T10:57:51.421Z,11.87
2018-11-14T11:00:27.414Z,12.10
2018-11-14T11:03:01.797Z,11.70
2018-11-14T11:05:35.617Z,14.07
2018-11-14T11:08:10.102Z,12.27
2018-11-14T11:10:43.927Z,13.33
2018-11-14T11:13:17.865Z,12.50
2018-11-14T11:15:51.858Z,13.87
2018-11-14T11:18:24.449Z,14.80
2018-11-14T11:20:53.498Z,13.27
2018-11-14T11:23:22.112Z,12.67
2018-11-14T11:25:50.716Z,13.00
2018-11-14T11:28:19.338Z,12.50
2018-11-14T11:30:48.251Z,13.00
2018-11-14T11:33:16.763Z,10.73
2018-11-14T11:35:45.317Z,12.53
2018-11-14T11:38:13.965Z,12.03
2018-11-14T11:40:42.398Z,10.80
2018-11-14T11:43:10.907Z,11.00
2018-11-14T11:45:39.429Z,11.87
2018-11-14T11:48:07.927Z,12.20
2018-11-14T11:50:36.448Z,12.70
2018-11-14T11:53:05.217Z,13.20
2018-11-14T11:55:33.750Z,12.13
2018-11-14T11:58:02.285Z,12.93
2018-11-14T12:00:31.031Z,11.87
2018-11-14T12:02:59.505Z,13.87
2018-11-14T12:05:28.048Z,12.97
2018-11-14T12:07:56.615Z,12.57
2018-11-14T12:10:25.169Z,14.60
2018-11-14T12:12:53.689Z,11.23
2018-11-14T12:15:22.241Z,12.07
2018-11-14T12:17:50.851Z,11.37
2018-11-14T12:20:19.348Z,12.90
2018-11-14T12:22:47.849Z,12.17
2018-11-14T12:25:16.431Z,11.23
2018-11-14T12:27:44.973Z,12.43
2018-11-14T12:30:16.004Z,13.20
2018-11-14T12:32:44.530Z,12.33
2018-11-14T12:35:15.348Z,10.13
2018-11-14T12:37:44.110Z,12.30
2018-11-14T12:40:13.947Z,13.32
2018-11-14T12:42:42.611Z,13.62
2018-11-14T12:45:12.904Z,12.53
2018-11-14T12:47:41.527Z,14.50
2018-11-14T12:50:11.457Z,12.37
2018-11-14T12:52:40.262Z,11.47
2018-11-14T12:55:11.643Z,12.70
2018-11-14T12:57:40.274Z,13.27
2018-11-14T13:00:10.964Z,13.13
2018-11-14T13:02:39.695Z,12.90
2018-11-14T13:05:09.212Z,13.50
2018-11-14T13:07:38.077Z,15.65
2018-11-14T13:10:07.858Z,13.30
2018-11-14T13:12:36.371Z,11.10
2018-11-14T13:15:05.026Z,13.70
2018-11-14T13:17:33.522Z,12.13
2018-11-14T13:20:02.102Z,13.27
2018-11-14T13:22:30.618Z,13.10
2018-11-14T13:24:59.325Z,12.63
2018-11-14T13:27:27.990Z,15.33
2018-11-14T13:29:56.576Z,13.00
2018-11-14T13:32:25.076Z,13.10
2018-11-14T13:34:53.614Z,12.80
2018-11-14T13:37:22.115Z,12.80
2018-11-14T13:39:50.704Z,14.23
2018-11-14T13:42:19.388Z,14.60
2018-11-14T13:44:48.014Z,13.03
2018-11-14T13:47:16.753Z,13.70
2018-11-14T13:49:45.529Z,14.50
2018-11-14T13:52:13.830Z,12.60
2018-11-14T13:54:42.338Z,13.80
2018-11-14T13:57:10.971Z,14.53
2018-11-14T13:59:39.595Z,14.00
2018-11-14T14:02:08.270Z,14.63
2018-11-14T14:04:36.781Z,12.50
2018-11-14T14:07:05.380Z,14.30
2018-11-14T14:09:33.918Z,13.37
2018-11-14T14:12:02.464Z,13.63
2018-11-14T14:14:31.618Z,14.13
2018-11-14T14:17:00.180Z,16.13
2018-11-14T14:19:28.679Z,15.43
2018-11-14T14:21:57.249Z,14.33
2018-11-14T14:24:25.707Z,13.50
2018-11-14T14:26:55.314Z,14.10
2018-11-14T14:29:26.146Z,14.40
2018-11-14T14:31:54.742Z,12.27
2018-11-14T14:34:23.343Z,13.77
2018-11-14T14:36:51.904Z,13.00
2018-11-14T14:39:20.398Z,14.57
2018-11-14T14:41:49.003Z,13.97
2018-11-14T14:44:17.525Z,13.87
2018-11-14T14:46:46.201Z,14.13
2018-11-14T14:49:14.719Z,14.23
2018-11-14T14:51:43.234Z,14.40
2018-11-14T14:54:11.734Z,14.63
2018-11-14T14:56:40.258Z,14.10
2018-11-14T14:59:09.115Z,13.23
2018-11-14T15:01:37.667Z,12.33
2018-11-14T15:04:06.646Z,12.43
2018-11-14T15:06:35.240Z,12.40
2018-11-14T15:09:04.059Z,13.00
2018-11-14T15:11:32.625Z,13.90
2018-11-14T15:14:01.147Z,11.93
2018-11-14T15:16:29.679Z,12.10
2018-11-14T15:18:58.201Z,12.67
2018-11-14T15:21:26.718Z,13.00
2018-11-14T15:23:55.235Z,11.80
2018-11-14T15:26:23.780Z,11.73
2018-11-14T15:28:52.336Z,11.90
2018-11-14T15:31:21.602Z,13.30
2018-11-14T15:33:50.121Z,13.60
2018-11-14T15:36:18.669Z,13.20
2018-11-14T15:38:47.178Z,14.33
2018-11-14T15:41:15.700Z,13.80
2018-11-14T15:43:44.226Z,14.13
2018-11-14T15:46:12.769Z,14.73
2018-11-14T15:48:41.299Z,14.23
2018-11-14T15:51:10.481Z,14.37
2018-11-14T15:53:38.998Z,13.53
2018-11-14T15:56:07.543Z,13.20
2018-11-14T15:58:36.044Z,13.87
2018-11-14T16:01:04.955Z,13.80
2018-11-14T16:03:33.514Z,14.07
2018-11-14T16:06:02.072Z,15.80
2018-11-14T16:08:30.582Z,14.77
2018-11-14T16:10:59.111Z,16.30
2018-11-14T16:13:27.643Z,14.70
2018-11-14T16:15:56.160Z,14.93
2018-11-14T16:18:24.671Z,17.77
2018-11-14T16:20:53.194Z,16.40
2018-11-14T16:23:21.693Z,17.47
2018-11-14T16:25:50.228Z,16.50
2018-11-14T16:28:18.745Z,18.50
2018-11-14T16:30:47.304Z,16.20
2018-11-14T16:33:15.806Z,15.80
2018-11-14T16:35:44.399Z,15.23
2018-11-14T16:38:12.985Z,16.00
2018-11-14T16:40:41.487Z,17.60
2018-11-14T16:43:09.994Z,17.43
2018-11-14T16:45:38.534Z,16.40
2018-11-14T16:48:07.678Z,15.47
2018-11-14T16:50:36.185Z,16.47
2018-11-14T16:53:04.853Z,17.20
2018-11-14T16:55:33.400Z,17.00
2018-11-14T16:58:01.920Z,15.93
2018-11-14T17:00:31.632Z,15.87
2018-11-14T17:03:00.467Z,16.17
2018-11-14T17:05:30.133Z,16.83
2018-11-14T17:07:58.690Z,16.83
2018-11-14T17:10:27.211Z,17.00
2018-11-14T17:12:57.521Z,17.23
2018-11-14T17:15:26.911Z,18.07
2018-11-14T17:17:55.496Z,17.20
2018-11-14T17:20:24.879Z,17.60
2018-11-14T17:22:54.422Z,16.70
2018-11-14T17:25:22.911Z,16.07
2018-11-14T17:27:51.704Z,17.30
2018-11-14T17:30:21.588Z,18.47
2018-11-14T17:32:50.431Z,17.90
2018-11-14T17:35:19.262Z,16.90
2018-11-14T17:37:47.929Z,17.97
2018-11-14T17:40:19.005Z,17.80
2018-11-14T17:42:48.621Z,20.07
2018-11-14T17:45:18.662Z,18.67
2018-11-14T17:47:47.882Z,18.07
2018-11-14T17:50:19.283Z,18.50
2018-11-14T17:52:48.726Z,18.80
2018-11-14T17:55:18.055Z,20.37
2018-11-14T17:57:46.546Z,16.47
2018-11-14T18:00:17.600Z,20.03
2018-11-14T18:02:46.573Z,18.37
2018-11-14T18:05:17.336Z,17.90
2018-11-14T18:07:46.570Z,16.87
2018-11-14T18:10:16.570Z,18.10
2018-11-14T18:12:46.179Z,18.70
2018-11-14T18:15:14.750Z,18.87
2018-11-14T18:17:43.651Z,19.27
2018-11-14T18:20:13.577Z,20.27
2018-11-14T18:22:42.735Z,18.83
2018-11-14T18:25:11.553Z,18.37
2018-11-14T18:27:40.127Z,17.13
2018-11-14T18:30:10.784Z,17.30
2018-11-14T18:32:39.557Z,17.20
2018-11-14T18:35:10.581Z,17.67
2018-11-14T18:37:40.324Z,17.67
2018-11-14T18:40:11.344Z,18.37
2018-11-14T18:42:40.340Z,18.43
2018-11-14T18:45:14.079Z,20.87
2018-11-14T18:47:42.931Z,20.20
2018-11-14T18:50:12.856Z,20.67
2018-11-14T18:52:41.561Z,17.47
2018-11-14T18:55:11.999Z,17.40
2018-11-14T18:57:41.127Z,19.67
2018-11-14T19:00:13.259Z,19.60
2018-11-14T19:02:42.324Z,20.03
2018-11-14T19:05:11.650Z,21.47
2018-11-14T19:07:40.409Z,22.63
2018-11-14T19:10:10.671Z,21.53
2018-11-14T19:12:39.776Z,21.07
2018-11-14T19:15:13.785Z,21.90
2018-11-14T19:17:42.347Z,22.03
2018-11-14T19:20:13.986Z,24.23
2018-11-14T19:22:42.970Z,20.50
2018-11-14T19:25:15.776Z,20.27
2018-11-14T19:27:45.078Z,17.90
2018-11-14T19:30:15.400Z,17.43
2018-11-14T19:32:45.110Z,18.37
2018-11-14T19:35:14.304Z,17.10
2018-11-14T19:37:44.923Z,15.40
2018-11-14T19:40:16.454Z,17.70
2018-11-14T19:42:45.898Z,16.93
2018-11-14T19:45:17.307Z,17.00
2018-11-14T19:47:45.835Z,16.03
2018-11-14T19:50:15.617Z,16.13
2018-11-14T19:52:44.693Z,18.30
2018-11-14T19:55:14.703Z,20.37
2018-11-14T19:57:44.240Z,19.17
2018-11-14T20:00:23.695Z,18.07
2018-11-14T20:02:52.214Z,17.77
2018-11-14T20:05:21.390Z,17.40
2018-11-14T20:07:49.927Z,19.20
2018-11-14T20:10:19.768Z,19.00
2018-11-14T20:12:48.882Z,18.03
2018-11-14T20:15:23.166Z,21.10
2018-11-14T20:17:52.097Z,20.33
2018-11-14T20:20:21.972Z,18.80
2018-11-14T20:22:50.800Z,20.37
2018-11-14T20:25:19.669Z,22.83
2018-11-14T20:27:48.550Z,20.80
2018-11-14T20:30:23.159Z,19.97
2018-11-14T20:32:52.372Z,20.17
2018-11-14T20:35:21.754Z,19.13
2018-11-14T20:37:50.287Z,23.40
2018-11-14T20:40:20.077Z,21.83
2018-11-14T20:42:49.714Z,22.37
2018-11-14T20:45:19.807Z,24.20
2018-11-14T20:47:48.378Z,21.97
2018-11-14T20:50:19.319Z,21.60
2018-11-14T20:52:49.233Z,24.77
2018-11-14T20:55:17.750Z,22.47
2018-11-14T20:57:46.312Z,22.00
2018-11-14T21:00:22.291Z,19.40
2018-11-14T21:02:51.295Z,20.43
2018-11-14T21:05:20.018Z,20.70
2018-11-14T21:07:48.739Z,23.13
2018-11-14T21:10:18.529Z,23.60
2018-11-14T21:12:47.737Z,22.67
2018-11-14T21:15:18.231Z,21.70
2018-11-14T21:17:47.236Z,21.93
2018-11-14T21:20:15.783Z,22.87
2018-11-14T21:22:44.338Z,23.50
2018-11-14T21:25:14.235Z,20.63
2018-11-14T21:27:43.770Z,18.13
2018-11-14T21:30:14.081Z,17.40
2018-11-14T21:32:42.850Z,15.80
2018-11-14T21:35:14.018Z,16.40
2018-11-14T21:37:43.215Z,16.50
2018-11-14T21:40:12.240Z,18.47
2018-11-14T21:42:40.872Z,20.00
2018-11-14T21:45:11.880Z,19.90
2018-11-14T21:47:45.772Z,17.70
2018-11-14T21:50:14.690Z,18.40
2018-11-14T21:52:43.244Z,17.63
2018-11-14T21:55:12.401Z,17.87
2018-11-14T21:57:41.200Z,15.63
2018-11-14T22:00:18.759Z,16.47
2018-11-14T22:02:48.720Z,15.70
2018-11-14T22:05:17.251Z,15.90
2018-11-14T22:07:45.787Z,15.77
2018-11-14T22:10:22.466Z,16.07
2018-11-14T22:12:51.496Z,15.23
2018-11-14T22:15:21.327Z,16.20
2018-11-14T22:17:50.010Z,16.50
2018-11-14T22:20:19.970Z,16.87
2018-11-14T22:22:48.952Z,15.80
2018-11-14T22:25:18.733Z,17.17
2018-11-14T22:27:47.324Z,16.33
2018-11-14T22:30:20.246Z,15.60
2018-11-14T22:32:48.773Z,15.80
2018-11-14T22:35:18.660Z,16.80
2018-11-14T22:37:47.180Z,16.80
2018-11-14T22:40:16.989Z,15.67
2018-11-14T22:42:45.911Z,16.03
2018-11-14T22:45:16.647Z,16.43
2018-11-14T22:47:45.545Z,16.07
2018-11-14T22:50:15.526Z,16.50
2018-11-14T22:52:44.863Z,17.53
2018-11-14T22:55:14.545Z,16.93
2018-11-14T22:57:43.767Z,17.67
2018-11-14T23:00:20.701Z,17.90
2018-11-14T23:02:51.178Z,16.90
2018-11-14T23:05:19.724Z,17.20
2018-11-14T23:07:49.662Z,15.70
2018-11-14T23:10:20.069Z,17.30
2018-11-14T23:12:49.100Z,16.87
2018-11-14T23:15:18.123Z,17.10
2018-11-14T23:17:46.670Z,16.57
2018-11-14T23:20:16.078Z,16.97
2018-11-14T23:22:45.352Z,18.07
2018-11-14T23:25:14.562Z,17.87
2018-11-14T23:27:44.357Z,16.63
2018-11-14T23:30:14.090Z,18.00
2018-11-14T23:32:43.825Z,18.23
2018-11-14T23:35:16.045Z,17.00
2018-11-14T23:37:46.089Z,16.73
2018-11-14T23:40:14.632Z,17.20
2018-11-14T23:42:43.201Z,19.07
2018-11-14T23:45:13.786Z,19.63
2018-11-14T23:47:43.266Z,18.13
2018-11-14T23:50:14.043Z,18.10
2018-11-14T23:52:43.937Z,19.57
2018-11-14T23:55:12.726Z,19.60
2018-11-14T23:57:41.286Z,22.20
